Terminal Aerodrome Forecast
Issued by NWS Cleveland, OH

Home | Current Version | Previous Version | Text Only | Print | Product List | Glossary Off
Versions: 1 2 3 4 5 6 7 8 9 10 11 12 13 14 15 16 17 18 19 20 21 22 23 24 25 26 27 28 29

000
FTUS41 KCLE 220500
TAFCLE
TAF
KCLE 220539Z 2206/2312 15004KT P6SM SKC
      TEMPO 2210/2213 5SM BR
     FM221500 21008KT P6SM SCT045
     FM221900 02006KT P6SM SCT050
     FM230000 21006KT P6SM BKN250
     FM231000 23008KT P6SM VCSH BKN050 OVC100=

USA.gov is the U.S. government's official web portal to all federal, state and local government web resources and services.